sensor_id;sensor_type;location;lat;lon;timestamp;P1;durP1;ratioP1;P2;durP2;ratioP2
10717;SDS011;13513;42.700;23.124;2022-12-18T00:01:45;5.20;;;3.63;;
10717;SDS011;13513;42.700;23.124;2022-12-18T00:04:23;3.63;;;3.30;;
10717;SDS011;13513;42.700;23.124;2022-12-18T00:06:55;4.00;;;3.60;;
10717;SDS011;13513;42.700;23.124;2022-12-18T00:09:25;5.80;;;3.80;;
10717;SDS011;13513;42.700;23.124;2022-12-18T00:11:56;5.20;;;4.20;;
10717;SDS011;13513;42.700;23.124;2022-12-18T00:14:27;6.33;;;3.80;;
10717;SDS011;13513;42.700;23.124;2022-12-18T00:16:58;4.50;;;3.83;;
10717;SDS011;13513;42.700;23.124;2022-12-18T00:19:29;4.53;;;4.10;;
10717;SDS011;13513;42.700;23.124;2022-12-18T00:21:59;3.97;;;3.57;;
10717;SDS011;13513;42.700;23.124;2022-12-18T00:24:31;4.40;;;3.63;;
10717;SDS011;13513;42.700;23.124;2022-12-18T00:27:02;4.93;;;3.70;;
10717;SDS011;13513;42.700;23.124;2022-12-18T00:29:32;4.07;;;3.57;;
10717;SDS011;13513;42.700;23.124;2022-12-18T00:32:03;4.23;;;3.37;;
10717;SDS011;13513;42.700;23.124;2022-12-18T00:34:34;4.77;;;3.90;;
10717;SDS011;13513;42.700;23.124;2022-12-18T00:37:05;4.00;;;3.47;;
10717;SDS011;13513;42.700;23.124;2022-12-18T00:39:36;5.17;;;4.17;;
10717;SDS011;13513;42.700;23.124;2022-12-18T00:42:07;5.23;;;3.87;;
10717;SDS011;13513;42.700;23.124;2022-12-18T00:44:55;4.87;;;3.93;;
10717;SDS011;13513;42.700;23.124;2022-12-18T00:47:26;4.70;;;3.93;;
10717;SDS011;13513;42.700;23.124;2022-12-18T00:49:57;4.23;;;3.83;;
10717;SDS011;13513;42.700;23.124;2022-12-18T00:52:28;4.20;;;3.80;;
10717;SDS011;13513;42.700;23.124;2022-12-18T00:54:58;4.53;;;3.73;;
10717;SDS011;13513;42.700;23.124;2022-12-18T00:57:29;5.17;;;4.00;;
10717;SDS011;13513;42.700;23.124;2022-12-18T01:00:00;4.90;;;3.70;;
10717;SDS011;13513;42.700;23.124;2022-12-18T01:02:32;4.80;;;4.00;;
10717;SDS011;13513;42.700;23.124;2022-12-18T01:05:02;4.57;;;3.80;;
10717;SDS011;13513;42.700;23.124;2022-12-18T01:07:32;4.27;;;3.67;;
10717;SDS011;13513;42.700;23.124;2022-12-18T01:10:03;4.87;;;3.97;;
10717;SDS011;13513;42.700;23.124;2022-12-18T01:12:35;5.67;;;3.73;;
10717;SDS011;13513;42.700;23.124;2022-12-18T01:15:06;7.07;;;4.27;;
10717;SDS011;13513;42.700;23.124;2022-12-18T01:17:38;4.03;;;3.60;;
10717;SDS011;13513;42.700;23.124;2022-12-18T01:20:09;4.77;;;4.23;;
10717;SDS011;13513;42.700;23.124;2022-12-18T01:22:42;5.27;;;4.20;;
10717;SDS011;13513;42.700;23.124;2022-12-18T01:25:13;4.33;;;3.67;;
10717;SDS011;13513;42.700;23.124;2022-12-18T01:27:42;5.43;;;4.13;;
10717;SDS011;13513;42.700;23.124;2022-12-18T01:30:13;4.50;;;3.60;;
10717;SDS011;13513;42.700;23.124;2022-12-18T01:32:44;5.20;;;3.77;;
10717;SDS011;13513;42.700;23.124;2022-12-18T01:35:13;5.60;;;4.40;;
10717;SDS011;13513;42.700;23.124;2022-12-18T01:37:44;5.53;;;4.37;;
10717;SDS011;13513;42.700;23.124;2022-12-18T01:40:15;5.87;;;5.00;;
10717;SDS011;13513;42.700;23.124;2022-12-18T01:42:50;4.93;;;4.30;;
10717;SDS011;13513;42.700;23.124;2022-12-18T01:45:21;5.43;;;4.00;;
10717;SDS011;13513;42.700;23.124;2022-12-18T01:47:56;5.17;;;4.03;;
10717;SDS011;13513;42.700;23.124;2022-12-18T01:50:34;4.67;;;4.17;;
10717;SDS011;13513;42.700;23.124;2022-12-18T01:53:11;4.23;;;3.70;;
10717;SDS011;13513;42.700;23.124;2022-12-18T01:55:45;4.80;;;3.90;;
10717;SDS011;13513;42.700;23.124;2022-12-18T01:58:17;4.03;;;3.63;;
10717;SDS011;13513;42.700;23.124;2022-12-18T02:00:49;4.87;;;4.17;;
10717;SDS011;13513;42.700;23.124;2022-12-18T02:03:20;3.93;;;3.50;;
10717;SDS011;13513;42.700;23.124;2022-12-18T02:05:56;4.23;;;3.77;;
10717;SDS011;13513;42.700;23.124;2022-12-18T02:14:22;4.27;;;3.50;;
10717;SDS011;13513;42.700;23.124;2022-12-18T02:27:54;4.97;;;3.70;;
10717;SDS011;13513;42.700;23.124;2022-12-18T02:30:26;4.33;;;3.73;;
10717;SDS011;13513;42.700;23.124;2022-12-18T02:32:58;5.20;;;3.83;;
10717;SDS011;13513;42.700;23.124;2022-12-18T02:35:30;4.70;;;4.10;;
10717;SDS011;13513;42.700;23.124;2022-12-18T02:38:03;5.60;;;3.77;;
10717;SDS011;13513;42.700;23.124;2022-12-18T02:40:35;4.87;;;3.83;;
10717;SDS011;13513;42.700;23.124;2022-12-18T02:43:12;5.40;;;4.03;;
10717;SDS011;13513;42.700;23.124;2022-12-18T02:45:48;5.40;;;4.13;;
10717;SDS011;13513;42.700;23.124;2022-12-18T02:48:29;4.83;;;3.77;;
10717;SDS011;13513;42.700;23.124;2022-12-18T02:50:59;4.87;;;3.73;;
10717;SDS011;13513;42.700;23.124;2022-12-18T02:54:22;5.50;;;4.03;;
10717;SDS011;13513;42.700;23.124;2022-12-18T02:56:31;7.03;;;3.80;;
10717;SDS011;13513;42.700;23.124;2022-12-18T02:59:09;4.53;;;3.80;;
10717;SDS011;13513;42.700;23.124;2022-12-18T03:01:50;4.97;;;4.00;;
10717;SDS011;13513;42.700;23.124;2022-12-18T03:04:22;5.70;;;4.13;;
10717;SDS011;13513;42.700;23.124;2022-12-18T03:06:56;6.03;;;4.07;;
10717;SDS011;13513;42.700;23.124;2022-12-18T03:09:32;4.73;;;3.97;;
10717;SDS011;13513;42.700;23.124;2022-12-18T03:12:11;5.60;;;3.87;;
10717;SDS011;13513;42.700;23.124;2022-12-18T03:15:02;7.67;;;4.37;;
10717;SDS011;13513;42.700;23.124;2022-12-18T03:17:29;4.50;;;4.00;;
10717;SDS011;13513;42.700;23.124;2022-12-18T03:20:05;4.63;;;3.90;;
10717;SDS011;13513;42.700;23.124;2022-12-18T03:22:38;4.80;;;3.87;;
10717;SDS011;13513;42.700;23.124;2022-12-18T03:25:13;6.43;;;4.27;;
10717;SDS011;13513;42.700;23.124;2022-12-18T03:27:47;5.50;;;4.07;;
10717;SDS011;13513;42.700;23.124;2022-12-18T03:30:19;4.77;;;4.17;;
10717;SDS011;13513;42.700;23.124;2022-12-18T03:35:41;5.23;;;4.10;;
10717;SDS011;13513;42.700;23.124;2022-12-18T03:38:12;5.93;;;4.20;;
10717;SDS011;13513;42.700;23.124;2022-12-18T03:49:12;6.13;;;4.53;;
10717;SDS011;13513;42.700;23.124;2022-12-18T03:54:41;6.07;;;4.63;;
10717;SDS011;13513;42.700;23.124;2022-12-18T03:57:16;7.73;;;5.20;;
10717;SDS011;13513;42.700;23.124;2022-12-18T03:59:52;7.30;;;5.20;;
10717;SDS011;13513;42.700;23.124;2022-12-18T04:02:22;8.10;;;4.80;;
10717;SDS011;13513;42.700;23.124;2022-12-18T04:04:53;6.70;;;5.07;;
10717;SDS011;13513;42.700;23.124;2022-12-18T04:07:26;8.17;;;5.10;;
10717;SDS011;13513;42.700;23.124;2022-12-18T04:09:58;7.67;;;4.83;;
10717;SDS011;13513;42.700;23.124;2022-12-18T04:12:30;7.23;;;5.07;;
10717;SDS011;13513;42.700;23.124;2022-12-18T04:15:01;7.53;;;5.30;;
10717;SDS011;13513;42.700;23.124;2022-12-18T04:17:32;7.20;;;5.20;;
10717;SDS011;13513;42.700;23.124;2022-12-18T04:20:05;7.07;;;5.67;;
10717;SDS011;13513;42.700;23.124;2022-12-18T04:22:38;7.97;;;5.93;;
10717;SDS011;13513;42.700;23.124;2022-12-18T04:25:09;9.07;;;5.43;;
10717;SDS011;13513;42.700;23.124;2022-12-18T04:27:39;7.53;;;5.73;;
10717;SDS011;13513;42.700;23.124;2022-12-18T04:30:11;7.83;;;5.40;;
10717;SDS011;13513;42.700;23.124;2022-12-18T04:32:42;8.00;;;5.77;;
10717;SDS011;13513;42.700;23.124;2022-12-18T04:35:13;7.63;;;5.80;;
10717;SDS011;13513;42.700;23.124;2022-12-18T04:37:44;8.03;;;5.50;;
10717;SDS011;13513;42.700;23.124;2022-12-18T04:40:15;6.37;;;5.20;;
10717;SDS011;13513;42.700;23.124;2022-12-18T04:42:48;8.97;;;5.70;;
10717;SDS011;13513;42.700;23.124;2022-12-18T04:45:18;7.93;;;5.77;;
10717;SDS011;13513;42.700;23.124;2022-12-18T04:47:49;7.10;;;5.40;;
10717;SDS011;13513;42.700;23.124;2022-12-18T04:50:19;8.00;;;5.37;;
10717;SDS011;13513;42.700;23.124;2022-12-18T04:52:50;8.57;;;6.03;;
10717;SDS011;13513;42.700;23.124;2022-12-18T04:55:20;8.97;;;6.00;;
10717;SDS011;13513;42.700;23.124;2022-12-18T04:57:51;9.00;;;5.97;;
10717;SDS011;13513;42.700;23.124;2022-12-18T05:00:22;8.50;;;5.43;;
10717;SDS011;13513;42.700;23.124;2022-12-18T05:02:52;8.07;;;5.97;;
10717;SDS011;13513;42.700;23.124;2022-12-18T05:05:23;11.87;;;6.83;;
10717;SDS011;13513;42.700;23.124;2022-12-18T05:07:54;9.57;;;6.60;;
10717;SDS011;13513;42.700;23.124;2022-12-18T05:10:25;10.30;;;6.83;;
10717;SDS011;13513;42.700;23.124;2022-12-18T05:12:56;11.13;;;6.83;;
10717;SDS011;13513;42.700;23.124;2022-12-18T05:15:30;10.13;;;6.20;;
10717;SDS011;13513;42.700;23.124;2022-12-18T05:18:01;10.87;;;7.17;;
10717;SDS011;13513;42.700;23.124;2022-12-18T05:20:32;12.33;;;7.57;;
10717;SDS011;13513;42.700;23.124;2022-12-18T05:23:02;11.03;;;7.63;;
10717;SDS011;13513;42.700;23.124;2022-12-18T05:25:33;12.63;;;7.77;;
10717;SDS011;13513;42.700;23.124;2022-12-18T05:28:03;12.67;;;7.73;;
10717;SDS011;13513;42.700;23.124;2022-12-18T05:30:32;10.17;;;6.97;;
10717;SDS011;13513;42.700;23.124;2022-12-18T05:33:03;9.10;;;6.80;;
10717;SDS011;13513;42.700;23.124;2022-12-18T05:35:34;11.40;;;7.93;;
10717;SDS011;13513;42.700;23.124;2022-12-18T05:38:05;10.07;;;7.00;;
10717;SDS011;13513;42.700;23.124;2022-12-18T05:40:35;11.13;;;8.53;;
10717;SDS011;13513;42.700;23.124;2022-12-18T05:43:07;12.80;;;8.23;;
10717;SDS011;13513;42.700;23.124;2022-12-18T05:45:38;12.07;;;8.60;;
10717;SDS011;13513;42.700;23.124;2022-12-18T05:48:10;12.67;;;8.53;;
10717;SDS011;13513;42.700;23.124;2022-12-18T05:50:44;12.67;;;8.73;;
10717;SDS011;13513;42.700;23.124;2022-12-18T05:53:17;12.27;;;8.80;;
10717;SDS011;13513;42.700;23.124;2022-12-18T05:55:49;15.10;;;9.00;;
10717;SDS011;13513;42.700;23.124;2022-12-18T05:58:20;13.80;;;9.03;;
10717;SDS011;13513;42.700;23.124;2022-12-18T06:00:51;13.27;;;8.93;;
10717;SDS011;13513;42.700;23.124;2022-12-18T06:03:22;13.47;;;8.70;;
10717;SDS011;13513;42.700;23.124;2022-12-18T06:05:52;11.33;;;8.27;;
10717;SDS011;13513;42.700;23.124;2022-12-18T06:08:23;14.77;;;8.57;;
10717;SDS011;13513;42.700;23.124;2022-12-18T06:10:54;15.30;;;9.07;;
10717;SDS011;13513;42.700;23.124;2022-12-18T06:13:25;11.67;;;8.63;;
10717;SDS011;13513;42.700;23.124;2022-12-18T06:15:55;13.67;;;8.23;;
10717;SDS011;13513;42.700;23.124;2022-12-18T06:18:26;13.83;;;9.03;;
10717;SDS011;13513;42.700;23.124;2022-12-18T06:20:58;13.53;;;9.33;;
10717;SDS011;13513;42.700;23.124;2022-12-18T06:23:29;17.60;;;10.60;;
10717;SDS011;13513;42.700;23.124;2022-12-18T06:26:04;16.43;;;10.13;;
10717;SDS011;13513;42.700;23.124;2022-12-18T06:28:41;15.67;;;10.13;;
10717;SDS011;13513;42.700;23.124;2022-12-18T06:31:12;15.80;;;10.10;;
10717;SDS011;13513;42.700;23.124;2022-12-18T06:33:43;15.57;;;10.73;;
10717;SDS011;13513;42.700;23.124;2022-12-18T06:36:14;13.63;;;9.17;;
10717;SDS011;13513;42.700;23.124;2022-12-18T06:38:45;16.13;;;10.33;;
10717;SDS011;13513;42.700;23.124;2022-12-18T06:41:17;12.50;;;8.93;;
10717;SDS011;13513;42.700;23.124;2022-12-18T06:43:48;13.93;;;8.67;;
10717;SDS011;13513;42.700;23.124;2022-12-18T06:46:19;12.47;;;8.30;;
10717;SDS011;13513;42.700;23.124;2022-12-18T06:48:50;15.17;;;9.83;;
10717;SDS011;13513;42.700;23.124;2022-12-18T06:51:20;12.87;;;9.00;;
10717;SDS011;13513;42.700;23.124;2022-12-18T06:53:52;15.33;;;10.07;;
10717;SDS011;13513;42.700;23.124;2022-12-18T06:56:23;14.50;;;9.47;;
10717;SDS011;13513;42.700;23.124;2022-12-18T06:58:58;14.47;;;9.13;;
10717;SDS011;13513;42.700;23.124;2022-12-18T07:01:28;14.50;;;8.90;;
10717;SDS011;13513;42.700;23.124;2022-12-18T07:03:59;15.13;;;9.30;;
10717;SDS011;13513;42.700;23.124;2022-12-18T07:06:30;13.53;;;9.20;;
10717;SDS011;13513;42.700;23.124;2022-12-18T07:09:00;13.07;;;8.63;;
10717;SDS011;13513;42.700;23.124;2022-12-18T07:11:32;11.90;;;8.57;;
10717;SDS011;13513;42.700;23.124;2022-12-18T07:14:02;13.03;;;9.10;;
10717;SDS011;13513;42.700;23.124;2022-12-18T07:16:31;13.67;;;8.70;;
10717;SDS011;13513;42.700;23.124;2022-12-18T07:19:02;12.60;;;8.63;;
10717;SDS011;13513;42.700;23.124;2022-12-18T07:21:32;14.03;;;8.63;;
10717;SDS011;13513;42.700;23.124;2022-12-18T07:24:03;11.37;;;7.93;;
10717;SDS011;13513;42.700;23.124;2022-12-18T07:26:34;14.07;;;8.70;;
10717;SDS011;13513;42.700;23.124;2022-12-18T07:29:05;11.47;;;8.47;;
10717;SDS011;13513;42.700;23.124;2022-12-18T07:31:36;12.23;;;8.20;;
10717;SDS011;13513;42.700;23.124;2022-12-18T07:34:09;11.93;;;8.67;;
10717;SDS011;13513;42.700;23.124;2022-12-18T07:36:41;13.43;;;8.27;;
10717;SDS011;13513;42.700;23.124;2022-12-18T07:39:11;12.60;;;9.13;;
10717;SDS011;13513;42.700;23.124;2022-12-18T07:41:42;13.60;;;8.93;;
10717;SDS011;13513;42.700;23.124;2022-12-18T07:44:12;11.90;;;8.43;;
10717;SDS011;13513;42.700;23.124;2022-12-18T07:46:42;14.97;;;9.53;;
10717;SDS011;13513;42.700;23.124;2022-12-18T07:49:13;14.60;;;9.50;;
10717;SDS011;13513;42.700;23.124;2022-12-18T07:51:44;14.07;;;8.77;;
10717;SDS011;13513;42.700;23.124;2022-12-18T07:54:14;14.43;;;9.37;;
10717;SDS011;13513;42.700;23.124;2022-12-18T07:56:45;15.20;;;9.23;;
10717;SDS011;13513;42.700;23.124;2022-12-18T07:59:16;13.60;;;8.97;;
10717;SDS011;13513;42.700;23.124;2022-12-18T08:01:46;15.50;;;9.77;;
10717;SDS011;13513;42.700;23.124;2022-12-18T08:04:17;17.00;;;10.03;;
10717;SDS011;13513;42.700;23.124;2022-12-18T08:06:48;15.97;;;10.70;;
10717;SDS011;13513;42.700;23.124;2022-12-18T08:09:18;14.80;;;10.07;;
10717;SDS011;13513;42.700;23.124;2022-12-18T08:11:49;16.97;;;10.80;;
10717;SDS011;13513;42.700;23.124;2022-12-18T08:14:20;16.10;;;10.83;;
10717;SDS011;13513;42.700;23.124;2022-12-18T08:16:51;16.93;;;11.20;;
10717;SDS011;13513;42.700;23.124;2022-12-18T08:19:22;16.63;;;11.00;;
10717;SDS011;13513;42.700;23.124;2022-12-18T08:21:54;16.57;;;11.00;;
10717;SDS011;13513;42.700;23.124;2022-12-18T08:24:25;17.10;;;11.37;;
10717;SDS011;13513;42.700;23.124;2022-12-18T08:26:57;17.40;;;10.70;;
10717;SDS011;13513;42.700;23.124;2022-12-18T08:29:28;13.40;;;9.03;;
10717;SDS011;13513;42.700;23.124;2022-12-18T08:31:59;15.67;;;10.63;;
10717;SDS011;13513;42.700;23.124;2022-12-18T08:34:30;15.87;;;10.23;;
10717;SDS011;13513;42.700;23.124;2022-12-18T08:37:01;15.07;;;9.57;;
10717;SDS011;13513;42.700;23.124;2022-12-18T08:39:31;16.30;;;10.13;;
10717;SDS011;13513;42.700;23.124;2022-12-18T08:42:02;14.53;;;9.87;;
10717;SDS011;13513;42.700;23.124;2022-12-18T08:44:49;14.17;;;9.33;;
10717;SDS011;13513;42.700;23.124;2022-12-18T08:47:19;15.60;;;9.63;;
10717;SDS011;13513;42.700;23.124;2022-12-18T08:49:50;15.70;;;9.90;;
10717;SDS011;13513;42.700;23.124;2022-12-18T08:52:21;14.77;;;10.20;;
10717;SDS011;13513;42.700;23.124;2022-12-18T08:54:52;13.13;;;9.53;;
10717;SDS011;13513;42.700;23.124;2022-12-18T08:57:23;14.17;;;9.87;;
10717;SDS011;13513;42.700;23.124;2022-12-18T08:59:55;14.33;;;9.87;;
10717;SDS011;13513;42.700;23.124;2022-12-18T09:02:26;16.53;;;9.63;;
10717;SDS011;13513;42.700;23.124;2022-12-18T09:04:57;16.70;;;10.20;;
10717;SDS011;13513;42.700;23.124;2022-12-18T09:07:28;15.63;;;10.00;;
10717;SDS011;13513;42.700;23.124;2022-12-18T09:09:59;14.93;;;9.73;;
10717;SDS011;13513;42.700;23.124;2022-12-18T09:12:28;16.57;;;10.27;;
10717;SDS011;13513;42.700;23.124;2022-12-18T09:14:59;15.10;;;10.07;;
10717;SDS011;13513;42.700;23.124;2022-12-18T09:17:30;14.50;;;9.50;;
10717;SDS011;13513;42.700;23.124;2022-12-18T09:20:01;12.83;;;9.20;;
10717;SDS011;13513;42.700;23.124;2022-12-18T09:22:32;18.17;;;10.93;;
10717;SDS011;13513;42.700;23.124;2022-12-18T09:25:06;15.53;;;9.93;;
10717;SDS011;13513;42.700;23.124;2022-12-18T09:27:42;15.30;;;9.27;;
10717;SDS011;13513;42.700;23.124;2022-12-18T09:30:13;15.50;;;10.13;;
10717;SDS011;13513;42.700;23.124;2022-12-18T09:32:44;14.57;;;9.60;;
10717;SDS011;13513;42.700;23.124;2022-12-18T09:35:15;13.70;;;9.03;;
10717;SDS011;13513;42.700;23.124;2022-12-18T09:37:46;14.63;;;10.37;;
10717;SDS011;13513;42.700;23.124;2022-12-18T09:40:19;14.30;;;9.60;;
10717;SDS011;13513;42.700;23.124;2022-12-18T09:42:52;13.77;;;9.03;;
10717;SDS011;13513;42.700;23.124;2022-12-18T09:45:30;13.37;;;8.60;;
10717;SDS011;13513;42.700;23.124;2022-12-18T09:48:01;12.60;;;8.87;;
10717;SDS011;13513;42.700;23.124;2022-12-18T09:50:34;14.07;;;8.83;;
10717;SDS011;13513;42.700;23.124;2022-12-18T09:53:09;13.73;;;9.53;;
10717;SDS011;13513;42.700;23.124;2022-12-18T09:55:38;15.07;;;9.37;;
10717;SDS011;13513;42.700;23.124;2022-12-18T10:01:02;15.03;;;9.13;;
10717;SDS011;13513;42.700;23.124;2022-12-18T10:03:33;15.63;;;9.77;;
10717;SDS011;13513;42.700;23.124;2022-12-18T10:06:06;15.57;;;9.77;;
10717;SDS011;13513;42.700;23.124;2022-12-18T10:08:45;16.97;;;9.77;;
10717;SDS011;13513;42.700;23.124;2022-12-18T10:11:43;12.30;;;8.80;;
10717;SDS011;13513;42.700;23.124;2022-12-18T10:17:37;13.60;;;9.20;;
10717;SDS011;13513;42.700;23.124;2022-12-18T10:20:18;13.90;;;9.40;;
10717;SDS011;13513;42.700;23.124;2022-12-18T10:28:32;12.13;;;8.57;;
10717;SDS011;13513;42.700;23.124;2022-12-18T10:31:05;14.90;;;9.30;;
10717;SDS011;13513;42.700;23.124;2022-12-18T10:33:37;14.90;;;9.93;;
10717;SDS011;13513;42.700;23.124;2022-12-18T10:36:08;16.10;;;9.67;;
10717;SDS011;13513;42.700;23.124;2022-12-18T10:38:39;17.43;;;10.40;;
10717;SDS011;13513;42.700;23.124;2022-12-18T10:41:23;13.30;;;9.37;;
10717;SDS011;13513;42.700;23.124;2022-12-18T10:46:47;17.97;;;10.17;;
10717;SDS011;13513;42.700;23.124;2022-12-18T10:49:31;14.23;;;9.70;;
10717;SDS011;13513;42.700;23.124;2022-12-18T10:54:57;15.37;;;9.83;;
10717;SDS011;13513;42.700;23.124;2022-12-18T10:57:32;15.83;;;10.03;;
10717;SDS011;13513;42.700;23.124;2022-12-18T11:00:28;13.63;;;9.93;;
10717;SDS011;13513;42.700;23.124;2022-12-18T11:02:59;15.73;;;9.30;;
10717;SDS011;13513;42.700;23.124;2022-12-18T11:05:31;15.00;;;10.10;;
10717;SDS011;13513;42.700;23.124;2022-12-18T11:08:02;14.93;;;9.30;;
10717;SDS011;13513;42.700;23.124;2022-12-18T11:10:35;12.60;;;8.43;;
10717;SDS011;13513;42.700;23.124;2022-12-18T11:13:23;11.57;;;8.63;;
10717;SDS011;13513;42.700;23.124;2022-12-18T11:15:55;12.50;;;8.40;;
10717;SDS011;13513;42.700;23.124;2022-12-18T11:18:28;13.10;;;8.27;;
10717;SDS011;13513;42.700;23.124;2022-12-18T11:20:59;13.70;;;7.90;;
10717;SDS011;13513;42.700;23.124;2022-12-18T11:23:37;12.87;;;8.37;;
10717;SDS011;13513;42.700;23.124;2022-12-18T11:26:20;12.43;;;8.33;;
10717;SDS011;13513;42.700;23.124;2022-12-18T11:29:07;12.40;;;8.40;;
10717;SDS011;13513;42.700;23.124;2022-12-18T11:31:36;12.33;;;7.67;;
10717;SDS011;13513;42.700;23.124;2022-12-18T11:34:16;12.93;;;8.47;;
10717;SDS011;13513;42.700;23.124;2022-12-18T11:37:01;13.27;;;7.97;;
10717;SDS011;13513;42.700;23.124;2022-12-18T11:39:42;11.47;;;7.73;;
10717;SDS011;13513;42.700;23.124;2022-12-18T11:45:02;12.23;;;7.50;;
10717;SDS011;13513;42.700;23.124;2022-12-18T11:48:02;10.87;;;7.70;;
10717;SDS011;13513;42.700;23.124;2022-12-18T11:50:48;12.53;;;7.77;;
10717;SDS011;13513;42.700;23.124;2022-12-18T11:53:13;12.03;;;7.83;;
10717;SDS011;13513;42.700;23.124;2022-12-18T11:55:56;11.33;;;7.27;;
10717;SDS011;13513;42.700;23.124;2022-12-18T11:58:47;15.57;;;8.10;;
10717;SDS011;13513;42.700;23.124;2022-12-18T12:01:22;13.27;;;8.03;;
10717;SDS011;13513;42.700;23.124;2022-12-18T12:10:00;16.57;;;8.83;;
10717;SDS011;13513;42.700;23.124;2022-12-18T12:21:14;14.33;;;8.37;;
10717;SDS011;13513;42.700;23.124;2022-12-18T12:26:31;13.57;;;8.07;;
10717;SDS011;13513;42.700;23.124;2022-12-18T12:29:20;13.37;;;8.27;;
10717;SDS011;13513;42.700;23.124;2022-12-18T12:34:37;14.07;;;8.73;;
10717;SDS011;13513;42.700;23.124;2022-12-18T12:40:17;12.17;;;8.40;;
10717;SDS011;13513;42.700;23.124;2022-12-18T12:42:53;14.53;;;9.27;;
10717;SDS011;13513;42.700;23.124;2022-12-18T12:45:57;13.37;;;8.93;;
10717;SDS011;13513;42.700;23.124;2022-12-18T12:48:31;10.97;;;8.20;;
10717;SDS011;13513;42.700;23.124;2022-12-18T12:51:21;14.00;;;8.50;;
10717;SDS011;13513;42.700;23.124;2022-12-18T12:53:56;13.50;;;8.60;;
10717;SDS011;13513;42.700;23.124;2022-12-18T12:56:39;12.97;;;8.80;;
10717;SDS011;13513;42.700;23.124;2022-12-18T12:59:33;13.00;;;8.87;;
10717;SDS011;13513;42.700;23.124;2022-12-18T13:05:11;13.30;;;8.67;;
10717;SDS011;13513;42.700;23.124;2022-12-18T13:07:40;12.10;;;8.20;;
10717;SDS011;13513;42.700;23.124;2022-12-18T13:15:48;12.30;;;8.00;;
10717;SDS011;13513;42.700;23.124;2022-12-18T13:18:20;17.03;;;8.90;;
10717;SDS011;13513;42.700;23.124;2022-12-18T13:23:27;12.83;;;9.47;;
10717;SDS011;13513;42.700;23.124;2022-12-18T13:36:53;12.77;;;9.10;;
10717;SDS011;13513;42.700;23.124;2022-12-18T13:39:32;15.50;;;9.13;;
10717;SDS011;13513;42.700;23.124;2022-12-18T13:44:39;14.67;;;9.77;;
10717;SDS011;13513;42.700;23.124;2022-12-18T13:50:20;12.43;;;8.40;;
10717;SDS011;13513;42.700;23.124;2022-12-18T13:52:52;12.87;;;9.00;;
10717;SDS011;13513;42.700;23.124;2022-12-18T13:55:22;12.93;;;8.27;;
10717;SDS011;13513;42.700;23.124;2022-12-18T13:58:02;12.87;;;8.43;;
10717;SDS011;13513;42.700;23.124;2022-12-18T14:00:33;13.20;;;8.37;;
10717;SDS011;13513;42.700;23.124;2022-12-18T14:03:15;12.03;;;7.73;;
10717;SDS011;13513;42.700;23.124;2022-12-18T14:05:53;12.77;;;8.27;;
10717;SDS011;13513;42.700;23.124;2022-12-18T14:08:27;14.33;;;8.30;;
10717;SDS011;13513;42.700;23.124;2022-12-18T14:10:58;12.07;;;8.40;;
10717;SDS011;13513;42.700;23.124;2022-12-18T14:13:32;12.43;;;8.20;;
10717;SDS011;13513;42.700;23.124;2022-12-18T14:16:04;11.33;;;7.90;;
10717;SDS011;13513;42.700;23.124;2022-12-18T14:21:27;16.37;;;7.90;;
10717;SDS011;13513;42.700;23.124;2022-12-18T14:24:16;14.23;;;7.97;;
10717;SDS011;13513;42.700;23.124;2022-12-18T14:26:49;11.97;;;7.90;;
10717;SDS011;13513;42.700;23.124;2022-12-18T14:29:25;12.97;;;8.00;;
10717;SDS011;13513;42.700;23.124;2022-12-18T14:32:16;13.43;;;7.97;;
10717;SDS011;13513;42.700;23.124;2022-12-18T14:37:24;13.27;;;8.00;;
10717;SDS011;13513;42.700;23.124;2022-12-18T14:39:58;13.60;;;8.67;;
10717;SDS011;13513;42.700;23.124;2022-12-18T14:42:30;12.93;;;8.10;;
10717;SDS011;13513;42.700;23.124;2022-12-18T14:48:07;12.27;;;7.87;;
10717;SDS011;13513;42.700;23.124;2022-12-18T14:50:42;11.23;;;7.50;;
10717;SDS011;13513;42.700;23.124;2022-12-18T14:53:20;13.13;;;8.07;;
10717;SDS011;13513;42.700;23.124;2022-12-18T14:56:19;17.13;;;8.60;;
10717;SDS011;13513;42.700;23.124;2022-12-18T14:59:02;13.77;;;8.10;;
10717;SDS011;13513;42.700;23.124;2022-12-18T15:01:37;12.33;;;7.70;;
10717;SDS011;13513;42.700;23.124;2022-12-18T15:04:23;12.53;;;7.50;;
10717;SDS011;13513;42.700;23.124;2022-12-18T15:07:16;11.20;;;7.83;;
10717;SDS011;13513;42.700;23.124;2022-12-18T15:10:01;14.80;;;8.63;;
10717;SDS011;13513;42.700;23.124;2022-12-18T15:18:09;12.97;;;7.60;;
10717;SDS011;13513;42.700;23.124;2022-12-18T15:20:40;12.00;;;7.70;;
10717;SDS011;13513;42.700;23.124;2022-12-18T15:26:15;10.40;;;6.90;;
10717;SDS011;13513;42.700;23.124;2022-12-18T15:28:50;10.73;;;7.00;;
10717;SDS011;13513;42.700;23.124;2022-12-18T15:31:28;10.33;;;6.83;;
10717;SDS011;13513;42.700;23.124;2022-12-18T15:34:13;12.57;;;7.50;;
10717;SDS011;13513;42.700;23.124;2022-12-18T15:36:38;12.00;;;7.77;;
10717;SDS011;13513;42.700;23.124;2022-12-18T15:39:10;12.60;;;7.03;;
10717;SDS011;13513;42.700;23.124;2022-12-18T15:41:41;13.90;;;7.60;;
10717;SDS011;13513;42.700;23.124;2022-12-18T15:44:22;10.73;;;7.07;;
10717;SDS011;13513;42.700;23.124;2022-12-18T15:46:53;11.27;;;7.30;;
10717;SDS011;13513;42.700;23.124;2022-12-18T15:49:24;13.80;;;7.50;;
10717;SDS011;13513;42.700;23.124;2022-12-18T15:51:58;12.57;;;8.27;;
10717;SDS011;13513;42.700;23.124;2022-12-18T15:54:27;13.83;;;8.37;;
10717;SDS011;13513;42.700;23.124;2022-12-18T15:57:14;12.60;;;7.97;;
10717;SDS011;13513;42.700;23.124;2022-12-18T15:59:51;13.50;;;8.70;;
10717;SDS011;13513;42.700;23.124;2022-12-18T16:02:23;14.77;;;8.60;;
10717;SDS011;13513;42.700;23.124;2022-12-18T16:04:53;14.60;;;8.13;;
10717;SDS011;13513;42.700;23.124;2022-12-18T16:07:25;13.40;;;7.97;;
10717;SDS011;13513;42.700;23.124;2022-12-18T16:09:55;13.70;;;8.40;;
10717;SDS011;13513;42.700;23.124;2022-12-18T16:12:26;14.70;;;8.53;;
10717;SDS011;13513;42.700;23.124;2022-12-18T16:14:56;13.87;;;8.67;;
10717;SDS011;13513;42.700;23.124;2022-12-18T16:17:29;14.30;;;8.80;;
10717;SDS011;13513;42.700;23.124;2022-12-18T16:20:00;14.13;;;8.20;;
10717;SDS011;13513;42.700;23.124;2022-12-18T16:22:32;14.03;;;8.87;;
10717;SDS011;13513;42.700;23.124;2022-12-18T16:25:02;13.97;;;8.40;;
10717;SDS011;13513;42.700;23.124;2022-12-18T16:27:34;13.10;;;8.50;;
10717;SDS011;13513;42.700;23.124;2022-12-18T16:30:06;14.50;;;9.03;;
10717;SDS011;13513;42.700;23.124;2022-12-18T16:32:39;14.63;;;9.00;;
10717;SDS011;13513;42.700;23.124;2022-12-18T16:35:15;14.73;;;9.40;;
10717;SDS011;13513;42.700;23.124;2022-12-18T16:37:42;17.13;;;9.17;;
10717;SDS011;13513;42.700;23.124;2022-12-18T16:40:14;15.00;;;9.13;;
10717;SDS011;13513;42.700;23.124;2022-12-18T16:42:45;12.70;;;8.07;;
10717;SDS011;13513;42.700;23.124;2022-12-18T16:45:16;13.90;;;8.53;;
10717;SDS011;13513;42.700;23.124;2022-12-18T16:47:47;14.40;;;8.67;;
10717;SDS011;13513;42.700;23.124;2022-12-18T16:50:18;15.83;;;8.60;;
10717;SDS011;13513;42.700;23.124;2022-12-18T16:52:49;13.10;;;8.97;;
10717;SDS011;13513;42.700;23.124;2022-12-18T16:55:20;14.10;;;8.80;;
10717;SDS011;13513;42.700;23.124;2022-12-18T16:57:51;15.63;;;8.60;;
10717;SDS011;13513;42.700;23.124;2022-12-18T17:00:21;13.07;;;8.17;;